createdAt,value
2023-04-17T17:40:36.050Z,1.17
2023-04-17T17:43:02.996Z,1.40
2023-04-17T17:45:29.867Z,1.38
2023-04-17T17:47:56.798Z,1.45
2023-04-17T17:50:23.748Z,1.70
2023-04-17T17:52:50.617Z,0.98
2023-04-17T17:55:17.851Z,1.77
2023-04-17T17:57:49.232Z,1.20
2023-04-17T18:00:17.185Z,1.60
2023-04-17T18:02:44.279Z,1.00
2023-04-17T18:05:11.323Z,1.35
2023-04-17T18:07:38.219Z,1.20
2023-04-17T18:10:06.095Z,1.25
2023-04-17T18:12:32.974Z,1.27
2023-04-17T18:15:01.212Z,1.38
2023-04-17T18:17:28.124Z,1.55
2023-04-17T18:19:55.009Z,1.08
2023-04-17T18:22:21.877Z,1.48
2023-04-17T18:24:48.745Z,1.33
2023-04-17T18:27:15.577Z,1.35
2023-04-17T18:29:42.436Z,1.50
2023-04-17T18:32:10.866Z,1.75
2023-04-17T18:34:37.757Z,1.65
2023-04-17T18:37:04.597Z,1.40
2023-04-17T18:39:31.470Z,1.55
2023-04-17T18:41:58.601Z,1.65
2023-04-17T18:44:25.485Z,2.55
2023-04-17T18:46:52.380Z,2.88
2023-04-17T18:49:20.673Z,2.40
2023-04-17T18:51:47.552Z,3.00
2023-04-17T18:54:20.080Z,2.53
2023-04-17T18:56:46.972Z,2.53
2023-04-17T18:59:16.601Z,2.30
2023-04-17T19:01:43.489Z,2.17
2023-04-17T19:04:10.475Z,1.75
2023-04-17T19:06:38.784Z,2.47
2023-04-17T19:09:05.648Z,1.92
2023-04-17T19:11:32.742Z,3.90
2023-04-17T19:13:59.678Z,3.55
2023-04-17T19:16:26.576Z,3.65
2023-04-17T19:18:53.676Z,4.28
2023-04-17T19:21:20.541Z,4.10
2023-04-17T19:23:48.784Z,3.33
2023-04-17T19:26:15.678Z,3.90
2023-04-17T19:28:42.658Z,4.35
2023-04-17T19:31:09.556Z,3.55
2023-04-17T19:33:36.931Z,3.90
2023-04-17T19:36:03.992Z,3.28
2023-04-17T19:38:30.870Z,3.70
2023-04-17T19:41:12.313Z,2.90
2023-04-17T19:43:39.245Z,3.10
2023-04-17T19:46:06.124Z,3.10
2023-04-17T19:48:33.022Z,3.58
2023-04-17T19:50:59.921Z,3.60
2023-04-17T19:53:29.934Z,4.00
2023-04-17T19:55:56.998Z,3.15
2023-04-17T19:58:25.347Z,3.70
2023-04-17T20:00:52.221Z,3.72
2023-04-17T20:03:19.203Z,2.80
2023-04-17T20:05:46.170Z,3.25
2023-04-17T20:08:13.083Z,3.63
2023-04-17T20:10:40.026Z,3.08
2023-04-17T20:13:06.910Z,2.90
2023-04-17T20:15:35.228Z,3.42
2023-04-17T20:18:02.177Z,2.75
2023-04-17T20:20:29.187Z,2.95
2023-04-17T20:22:56.131Z,4.05
2023-04-17T20:25:22.988Z,3.33
2023-04-17T20:27:49.847Z,3.30
2023-04-17T20:30:16.740Z,3.53
2023-04-17T20:32:45.033Z,3.20
2023-04-17T20:35:12.114Z,3.63
2023-04-17T20:37:38.982Z,3.88
2023-04-17T20:40:07.155Z,3.65
2023-04-17T20:42:34.006Z,3.88
2023-04-17T20:45:00.928Z,3.67
2023-04-17T20:47:27.845Z,4.10
2023-04-17T20:49:56.120Z,3.28
2023-04-17T20:52:22.990Z,3.58
2023-04-17T20:54:49.828Z,3.33
2023-04-17T20:57:16.688Z,3.75
2023-04-17T20:59:43.572Z,3.58
2023-04-17T21:02:10.545Z,3.25
2023-04-17T21:04:37.481Z,3.35
2023-04-17T21:07:05.730Z,3.75
2023-04-17T21:09:33.311Z,2.88
2023-04-17T21:12:00.181Z,3.13
2023-04-17T21:14:27.050Z,3.22
2023-04-17T21:16:53.931Z,2.95
2023-04-17T21:19:20.825Z,3.03
2023-04-17T21:21:47.691Z,3.28
2023-04-17T21:24:15.925Z,2.55
2023-04-17T21:26:42.746Z,2.45
2023-04-17T21:29:09.635Z,2.97
2023-04-17T21:31:36.542Z,3.13
2023-04-17T21:34:03.448Z,2.97
2023-04-17T21:36:30.295Z,2.83
2023-04-17T21:38:57.161Z,2.88
2023-04-17T21:41:25.480Z,2.40
2023-04-17T21:43:53.110Z,3.05
2023-04-17T21:46:20.048Z,2.65
2023-04-17T21:48:46.968Z,2.72
2023-04-17T21:51:13.836Z,2.92
2023-04-17T21:53:40.703Z,2.65
2023-04-17T21:56:08.593Z,2.97
2023-04-17T21:58:36.840Z,2.47
2023-04-17T22:01:03.776Z,2.40
2023-04-17T22:03:30.684Z,2.70
2023-04-17T22:05:57.545Z,2.17
2023-04-17T22:08:24.438Z,2.53
2023-04-17T22:10:52.001Z,2.60
2023-04-17T22:13:18.877Z,2.33
2023-04-17T22:15:47.570Z,2.33
2023-04-17T22:18:14.439Z,2.53
2023-04-17T22:20:41.301Z,2.67
2023-04-17T22:23:08.177Z,2.30
2023-04-17T22:25:35.064Z,2.97
2023-04-17T22:28:01.960Z,2.63
2023-04-17T22:30:28.815Z,2.20
2023-04-17T22:32:57.115Z,2.40
2023-04-17T22:35:24.156Z,2.22
2023-04-17T22:37:51.041Z,2.30
2023-04-17T22:40:17.989Z,2.40
2023-04-17T22:42:44.872Z,2.30
2023-04-17T22:45:11.757Z,2.35
2023-04-17T22:47:38.730Z,2.33
2023-04-17T22:50:08.208Z,2.45
2023-04-17T22:52:35.068Z,2.25
2023-04-17T22:55:01.954Z,2.50
2023-04-17T22:57:28.825Z,2.50
2023-04-17T22:59:55.672Z,2.47
2023-04-17T23:02:22.616Z,2.10
2023-04-17T23:04:49.563Z,2.13
2023-04-17T23:07:17.835Z,2.60
2023-04-17T23:09:44.708Z,2.45
2023-04-17T23:12:11.563Z,2.55
2023-04-17T23:14:38.430Z,2.60
2023-04-17T23:17:05.307Z,2.75
2023-04-17T23:19:32.181Z,2.58
2023-04-17T23:21:59.089Z,2.28
2023-04-17T23:24:27.402Z,2.72
2023-04-17T23:26:54.289Z,2.53
2023-04-17T23:29:21.166Z,2.78
2023-04-17T23:31:48.220Z,2.58
2023-04-17T23:34:15.346Z,2.83
2023-04-17T23:36:42.436Z,3.00
2023-04-17T23:39:09.331Z,2.90
2023-04-17T23:41:37.586Z,2.85
2023-04-17T23:44:04.820Z,2.60
2023-04-17T23:46:31.733Z,2.90
2023-04-17T23:48:58.698Z,3.15
2023-04-17T23:51:25.601Z,3.22
2023-04-17T23:53:52.488Z,3.03
2023-04-17T23:56:19.358Z,2.97
2023-04-17T23:58:47.587Z,2.70
